TAF LDSP 280525Z 2806/2906 VRB02KT CAVOK
                 TX35/2814Z TN23/2903Z
    PROB30 TEMPO 2811/2816 23007KT=
TAF LDSP 272325Z 2800/2900 VRB02KT CAVOK
                 TX34/2812Z TN22/2803Z=
TAF LDSP 271725Z 2718/2818 VRB02KT CAVOK
                 TX34/2812Z TN24/2803Z=
TAF LDSP 271125Z 2712/2812 23009KT CAVOK
                 TX35/2712Z TN24/2803Z
           BECMG 2715/2717 23005KT=
TAF LDSP 270525Z 2706/2806 10004KT CAVOK
                 TX33/2712Z TN24/2803Z
           BECMG 2710/2712 23008KT
    PROB40 TEMPO 2712/2715 23010KT
           BECMG 2715/2717 23005KT=
TAF LDSP 262325Z 2700/2800 11005KT CAVOK
                 TX33/2712Z TN27/2703Z
    PROB30 TEMPO 2710/2715 23009KT=